Saronic Breeze — H9PE — position and weather

sailwx.info

Track history (hours):
 
Tides and Currents Weather Stations Pressure Air Temp Water Temp Dewpoint Dewpoint Depression Visibility Wind Speed Wind Dir Waves Ship Positions

Saronic Breeze

Last reported at 2017-Nov-20 00:30 UTC. Time now 2017-Dec-13 03:42 UTC.
Position S 31°15' E 034°37'.
Warning: this ship's position is 23 days out of date.

Length 138 m; draft 7.3 m.

Type: Ship. MMSI: 371156000.

Date/timePositionNaut miles runAvg speedWind from/ knotsBaromVisibWave heightAir tempDewpointWater temp
2017-Nov-20 00:30S 31°15' E 034°37'814.9
2017-Nov-20 00:00S 31°12' E 034°45'715.0
2017-Nov-19 23:30S 31°08' E 034°53'714.8
2017-Nov-19 23:01S 31°05' E 035°00'714.5
2017-Nov-19 22:31S 31°02' E 035°08'714.6
2017-Nov-19 22:00S 30°59' E 035°16'1114.6
2017-Nov-19 21:17S 30°55' E 035°27'1314.5
2017-Nov-19 20:25S 30°50' E 035°41'614.4
2017-Nov-19 19:59S 30°48' E 035°47'1314.5
2017-Nov-19 19:06S 30°42' E 036°01'  
Track history (hours):
 
Tides and Currents Weather Stations Pressure Air Temp Water Temp Dewpoint Dewpoint Depression Visibility Wind Speed Wind Dir Waves Ship Positions

Saronic Breeze

Last reported at 2017-Nov-20 00:30 UTC. Time now 2017-Dec-13 03:42 UTC.
Position S 31°15' E 034°37'.
Warning: this ship's position is 23 days out of date.

Length 138 m; draft 7.3 m.

Type: Ship. MMSI: 371156000.

Date/timePositionNaut miles runAvg speedWind from/ knotsBaromVisibWave heightAir tempDewpointWater temp
2017-Nov-20 00:30S 31°15' E 034°37'814.9
2017-Nov-20 00:00S 31°12' E 034°45'715.0
2017-Nov-19 23:30S 31°08' E 034°53'714.8
2017-Nov-19 23:01S 31°05' E 035°00'714.5
2017-Nov-19 22:31S 31°02' E 035°08'714.6
2017-Nov-19 22:00S 30°59' E 035°16'1114.6
2017-Nov-19 21:17S 30°55' E 035°27'1314.5
2017-Nov-19 20:25S 30°50' E 035°41'614.4
2017-Nov-19 19:59S 30°48' E 035°47'1314.5
2017-Nov-19 19:06S 30°42' E 036°01'  

Dump ship's entire track history